sensor_id;sensor_type;location;lat;lon;timestamp;P1;durP1;ratioP1;P2;durP2;ratioP2
5869;SDS011;2961;47.702;9.410;2022-07-03T00:00:28;2.40;;;2.30;;
5869;SDS011;2961;47.702;9.410;2022-07-03T00:02:56;2.60;;;2.17;;
5869;SDS011;2961;47.702;9.410;2022-07-03T00:05:23;2.70;;;2.60;;
5869;SDS011;2961;47.702;9.410;2022-07-03T00:07:50;2.30;;;2.20;;
5869;SDS011;2961;47.702;9.410;2022-07-03T00:10:17;2.20;;;2.20;;
5869;SDS011;2961;47.702;9.410;2022-07-03T00:12:44;2.80;;;2.70;;
5869;SDS011;2961;47.702;9.410;2022-07-03T00:15:11;2.30;;;2.20;;
5869;SDS011;2961;47.702;9.410;2022-07-03T00:17:38;1.90;;;1.80;;
5869;SDS011;2961;47.702;9.410;2022-07-03T00:20:07;2.30;;;2.20;;
5869;SDS011;2961;47.702;9.410;2022-07-03T00:22:36;3.77;;;2.90;;
5869;SDS011;2961;47.702;9.410;2022-07-03T00:25:07;3.20;;;2.10;;
5869;SDS011;2961;47.702;9.410;2022-07-03T00:27:38;6.53;;;2.80;;
5869;SDS011;2961;47.702;9.410;2022-07-03T00:30:06;7.70;;;2.40;;
5869;SDS011;2961;47.702;9.410;2022-07-03T00:32:33;3.33;;;2.23;;
5869;SDS011;2961;47.702;9.410;2022-07-03T00:35:05;2.97;;;2.77;;
5869;SDS011;2961;47.702;9.410;2022-07-03T00:37:34;2.77;;;2.57;;
5869;SDS011;2961;47.702;9.410;2022-07-03T00:40:01;2.33;;;2.10;;
5869;SDS011;2961;47.702;9.410;2022-07-03T00:42:28;2.73;;;2.33;;
5869;SDS011;2961;47.702;9.410;2022-07-03T00:44:58;6.30;;;1.97;;
5869;SDS011;2961;47.702;9.410;2022-07-03T00:47:26;2.30;;;2.17;;
5869;SDS011;2961;47.702;9.410;2022-07-03T00:49:55;2.50;;;1.90;;
5869;SDS011;2961;47.702;9.410;2022-07-03T00:52:24;2.93;;;2.37;;
5869;SDS011;2961;47.702;9.410;2022-07-03T00:54:52;3.50;;;2.20;;
5869;SDS011;2961;47.702;9.410;2022-07-03T00:57:20;1.90;;;1.83;;
5869;SDS011;2961;47.702;9.410;2022-07-03T00:59:48;4.87;;;2.33;;
5869;SDS011;2961;47.702;9.410;2022-07-03T01:02:19;3.40;;;2.50;;
5869;SDS011;2961;47.702;9.410;2022-07-03T01:04:58;2.93;;;2.07;;
5869;SDS011;2961;47.702;9.410;2022-07-03T01:07:37;4.43;;;2.60;;
5869;SDS011;2961;47.702;9.410;2022-07-03T01:10:15;2.80;;;2.70;;
5869;SDS011;2961;47.702;9.410;2022-07-03T01:12:54;3.03;;;2.83;;
5869;SDS011;2961;47.702;9.410;2022-07-03T01:15:28;2.57;;;2.47;;
5869;SDS011;2961;47.702;9.410;2022-07-03T01:18:03;3.97;;;1.90;;
5869;SDS011;2961;47.702;9.410;2022-07-03T01:20:42;14.57;;;2.60;;
5869;SDS011;2961;47.702;9.410;2022-07-03T01:23:19;2.20;;;2.10;;
5869;SDS011;2961;47.702;9.410;2022-07-03T01:25:52;2.27;;;2.10;;
5869;SDS011;2961;47.702;9.410;2022-07-03T01:28:21;3.87;;;1.90;;
5869;SDS011;2961;47.702;9.410;2022-07-03T01:30:49;2.33;;;2.20;;
5869;SDS011;2961;47.702;9.410;2022-07-03T01:33:18;2.40;;;2.30;;
5869;SDS011;2961;47.702;9.410;2022-07-03T01:35:47;2.40;;;2.30;;
5869;SDS011;2961;47.702;9.410;2022-07-03T01:38:31;2.43;;;2.20;;
5869;SDS011;2961;47.702;9.410;2022-07-03T01:41:03;2.37;;;2.27;;
5869;SDS011;2961;47.702;9.410;2022-07-03T01:43:32;3.73;;;2.60;;
5869;SDS011;2961;47.702;9.410;2022-07-03T01:46:00;5.17;;;2.00;;
5869;SDS011;2961;47.702;9.410;2022-07-03T01:48:29;2.17;;;2.13;;
5869;SDS011;2961;47.702;9.410;2022-07-03T01:50:57;2.57;;;2.47;;
5869;SDS011;2961;47.702;9.410;2022-07-03T01:53:25;2.40;;;2.30;;
5869;SDS011;2961;47.702;9.410;2022-07-03T01:55:54;2.43;;;1.97;;
5869;SDS011;2961;47.702;9.410;2022-07-03T01:58:23;2.80;;;2.20;;
5869;SDS011;2961;47.702;9.410;2022-07-03T02:00:53;3.90;;;2.30;;
5869;SDS011;2961;47.702;9.410;2022-07-03T02:03:35;2.13;;;2.03;;
5869;SDS011;2961;47.702;9.410;2022-07-03T02:06:09;2.73;;;2.40;;
5869;SDS011;2961;47.702;9.410;2022-07-03T02:08:43;2.30;;;2.20;;
5869;SDS011;2961;47.702;9.410;2022-07-03T02:11:13;2.73;;;2.50;;
5869;SDS011;2961;47.702;9.410;2022-07-03T02:13:48;6.20;;;2.70;;
5869;SDS011;2961;47.702;9.410;2022-07-03T02:16:18;2.50;;;2.00;;
5869;SDS011;2961;47.702;9.410;2022-07-03T02:18:47;2.10;;;2.00;;
5869;SDS011;2961;47.702;9.410;2022-07-03T02:21:22;4.10;;;2.80;;
5869;SDS011;2961;47.702;9.410;2022-07-03T02:23:55;2.60;;;2.40;;
5869;SDS011;2961;47.702;9.410;2022-07-03T02:26:32;3.00;;;2.90;;
5869;SDS011;2961;47.702;9.410;2022-07-03T02:29:02;4.70;;;2.60;;
5869;SDS011;2961;47.702;9.410;2022-07-03T02:31:32;7.27;;;2.97;;
5869;SDS011;2961;47.702;9.410;2022-07-03T02:34:04;2.17;;;2.07;;
5869;SDS011;2961;47.702;9.410;2022-07-03T02:36:33;3.93;;;2.40;;
5869;SDS011;2961;47.702;9.410;2022-07-03T02:39:01;2.00;;;2.00;;
5869;SDS011;2961;47.702;9.410;2022-07-03T02:41:35;2.37;;;2.27;;
5869;SDS011;2961;47.702;9.410;2022-07-03T02:44:14;1.80;;;1.80;;
5869;SDS011;2961;47.702;9.410;2022-07-03T02:46:50;2.40;;;2.23;;
5869;SDS011;2961;47.702;9.410;2022-07-03T02:52:24;7.10;;;2.30;;
5869;SDS011;2961;47.702;9.410;2022-07-03T02:54:57;3.93;;;2.40;;
5869;SDS011;2961;47.702;9.410;2022-07-03T02:57:36;2.97;;;2.40;;
5869;SDS011;2961;47.702;9.410;2022-07-03T03:00:07;2.70;;;2.50;;
5869;SDS011;2961;47.702;9.410;2022-07-03T03:02:45;8.27;;;2.47;;
5869;SDS011;2961;47.702;9.410;2022-07-03T03:05:22;11.93;;;2.70;;
5869;SDS011;2961;47.702;9.410;2022-07-03T03:08:00;2.97;;;2.63;;
5869;SDS011;2961;47.702;9.410;2022-07-03T03:10:33;2.60;;;2.40;;
5869;SDS011;2961;47.702;9.410;2022-07-03T03:13:02;3.80;;;2.53;;
5869;SDS011;2961;47.702;9.410;2022-07-03T03:15:32;2.77;;;2.30;;
5869;SDS011;2961;47.702;9.410;2022-07-03T03:18:01;4.83;;;2.40;;
5869;SDS011;2961;47.702;9.410;2022-07-03T03:20:31;2.90;;;2.70;;
5869;SDS011;2961;47.702;9.410;2022-07-03T03:23:06;9.20;;;2.90;;
5869;SDS011;2961;47.702;9.410;2022-07-03T03:25:36;2.80;;;2.70;;
5869;SDS011;2961;47.702;9.410;2022-07-03T03:28:03;3.20;;;3.00;;
5869;SDS011;2961;47.702;9.410;2022-07-03T03:30:31;3.30;;;3.10;;
5869;SDS011;2961;47.702;9.410;2022-07-03T03:32:58;9.90;;;3.17;;
5869;SDS011;2961;47.702;9.410;2022-07-03T03:35:25;3.33;;;3.20;;
5869;SDS011;2961;47.702;9.410;2022-07-03T03:37:52;3.10;;;2.80;;
5869;SDS011;2961;47.702;9.410;2022-07-03T03:40:19;3.00;;;2.90;;
5869;SDS011;2961;47.702;9.410;2022-07-03T03:42:46;3.00;;;2.90;;
5869;SDS011;2961;47.702;9.410;2022-07-03T03:45:13;2.83;;;2.10;;
5869;SDS011;2961;47.702;9.410;2022-07-03T03:47:41;2.80;;;2.60;;
5869;SDS011;2961;47.702;9.410;2022-07-03T03:50:08;2.80;;;2.70;;
5869;SDS011;2961;47.702;9.410;2022-07-03T03:52:36;4.90;;;2.60;;
5869;SDS011;2961;47.702;9.410;2022-07-03T03:55:03;3.07;;;2.80;;
5869;SDS011;2961;47.702;9.410;2022-07-03T03:57:30;4.93;;;3.43;;
5869;SDS011;2961;47.702;9.410;2022-07-03T03:59:57;2.97;;;2.57;;
5869;SDS011;2961;47.702;9.410;2022-07-03T04:02:24;2.50;;;2.40;;
5869;SDS011;2961;47.702;9.410;2022-07-03T04:04:52;5.60;;;2.57;;
5869;SDS011;2961;47.702;9.410;2022-07-03T04:07:19;6.00;;;2.80;;
5869;SDS011;2961;47.702;9.410;2022-07-03T04:09:46;2.43;;;2.33;;
5869;SDS011;2961;47.702;9.410;2022-07-03T04:12:12;3.77;;;2.40;;
5869;SDS011;2961;47.702;9.410;2022-07-03T04:14:39;3.73;;;3.50;;
5869;SDS011;2961;47.702;9.410;2022-07-03T04:17:06;2.80;;;2.70;;
5869;SDS011;2961;47.702;9.410;2022-07-03T04:19:33;3.27;;;2.97;;
5869;SDS011;2961;47.702;9.410;2022-07-03T04:22:02;2.43;;;2.33;;
5869;SDS011;2961;47.702;9.410;2022-07-03T04:24:33;4.07;;;3.20;;
5869;SDS011;2961;47.702;9.410;2022-07-03T04:27:00;2.83;;;1.93;;
5869;SDS011;2961;47.702;9.410;2022-07-03T04:29:27;2.03;;;1.80;;
5869;SDS011;2961;47.702;9.410;2022-07-03T04:31:53;3.30;;;1.53;;
5869;SDS011;2961;47.702;9.410;2022-07-03T04:34:20;2.97;;;1.40;;
5869;SDS011;2961;47.702;9.410;2022-07-03T04:36:47;1.83;;;1.70;;
5869;SDS011;2961;47.702;9.410;2022-07-03T04:39:15;2.03;;;1.57;;
5869;SDS011;2961;47.702;9.410;2022-07-03T04:41:42;2.20;;;2.00;;
5869;SDS011;2961;47.702;9.410;2022-07-03T04:44:09;7.40;;;1.60;;
5869;SDS011;2961;47.702;9.410;2022-07-03T04:46:36;3.23;;;1.80;;
5869;SDS011;2961;47.702;9.410;2022-07-03T04:49:02;4.73;;;1.77;;
5869;SDS011;2961;47.702;9.410;2022-07-03T04:51:30;1.60;;;1.57;;
5869;SDS011;2961;47.702;9.410;2022-07-03T04:53:56;1.60;;;1.50;;
5869;SDS011;2961;47.702;9.410;2022-07-03T04:56:25;1.30;;;1.23;;
5869;SDS011;2961;47.702;9.410;2022-07-03T04:58:51;4.10;;;1.57;;
5869;SDS011;2961;47.702;9.410;2022-07-03T05:01:18;3.33;;;1.77;;
5869;SDS011;2961;47.702;9.410;2022-07-03T05:03:45;7.93;;;1.40;;
5869;SDS011;2961;47.702;9.410;2022-07-03T05:06:12;1.40;;;1.30;;
5869;SDS011;2961;47.702;9.410;2022-07-03T05:08:39;2.13;;;2.00;;
5869;SDS011;2961;47.702;9.410;2022-07-03T05:11:05;2.10;;;1.60;;
5869;SDS011;2961;47.702;9.410;2022-07-03T05:13:34;1.83;;;1.73;;
5869;SDS011;2961;47.702;9.410;2022-07-03T05:16:01;2.13;;;1.93;;
5869;SDS011;2961;47.702;9.410;2022-07-03T05:18:28;5.53;;;1.90;;
5869;SDS011;2961;47.702;9.410;2022-07-03T05:20:55;1.60;;;1.50;;
5869;SDS011;2961;47.702;9.410;2022-07-03T05:23:22;2.13;;;1.77;;
5869;SDS011;2961;47.702;9.410;2022-07-03T05:25:49;2.00;;;1.40;;
5869;SDS011;2961;47.702;9.410;2022-07-03T05:28:16;2.40;;;1.53;;
5869;SDS011;2961;47.702;9.410;2022-07-03T05:30:44;1.53;;;1.53;;
5869;SDS011;2961;47.702;9.410;2022-07-03T05:33:11;2.67;;;1.47;;
5869;SDS011;2961;47.702;9.410;2022-07-03T05:35:37;1.47;;;1.37;;
5869;SDS011;2961;47.702;9.410;2022-07-03T05:38:04;1.57;;;1.57;;
5869;SDS011;2961;47.702;9.410;2022-07-03T05:40:31;4.33;;;1.70;;
5869;SDS011;2961;47.702;9.410;2022-07-03T05:42:58;5.43;;;1.90;;
5869;SDS011;2961;47.702;9.410;2022-07-03T05:45:25;2.13;;;1.80;;
5869;SDS011;2961;47.702;9.410;2022-07-03T05:47:53;3.40;;;1.80;;
5869;SDS011;2961;47.702;9.410;2022-07-03T05:50:20;2.40;;;1.90;;
5869;SDS011;2961;47.702;9.410;2022-07-03T05:52:47;2.00;;;1.97;;
5869;SDS011;2961;47.702;9.410;2022-07-03T05:55:13;2.40;;;2.20;;
5869;SDS011;2961;47.702;9.410;2022-07-03T05:57:40;1.93;;;1.83;;
5869;SDS011;2961;47.702;9.410;2022-07-03T06:00:07;2.40;;;2.13;;
5869;SDS011;2961;47.702;9.410;2022-07-03T06:02:35;1.83;;;1.73;;
5869;SDS011;2961;47.702;9.410;2022-07-03T06:05:03;2.27;;;2.17;;
5869;SDS011;2961;47.702;9.410;2022-07-03T06:07:31;3.13;;;2.00;;
5869;SDS011;2961;47.702;9.410;2022-07-03T06:09:57;2.50;;;2.30;;
5869;SDS011;2961;47.702;9.410;2022-07-03T06:12:24;7.83;;;2.30;;
5869;SDS011;2961;47.702;9.410;2022-07-03T06:14:51;8.57;;;2.33;;
5869;SDS011;2961;47.702;9.410;2022-07-03T06:17:18;1.73;;;1.63;;
5869;SDS011;2961;47.702;9.410;2022-07-03T06:19:45;3.90;;;2.07;;
5869;SDS011;2961;47.702;9.410;2022-07-03T06:22:13;2.70;;;2.50;;
5869;SDS011;2961;47.702;9.410;2022-07-03T06:24:40;2.17;;;2.00;;
5869;SDS011;2961;47.702;9.410;2022-07-03T06:27:06;2.10;;;2.00;;
5869;SDS011;2961;47.702;9.410;2022-07-03T06:29:33;2.83;;;1.80;;
5869;SDS011;2961;47.702;9.410;2022-07-03T06:32:00;1.97;;;1.87;;
5869;SDS011;2961;47.702;9.410;2022-07-03T06:34:27;5.63;;;1.90;;
5869;SDS011;2961;47.702;9.410;2022-07-03T06:36:54;2.00;;;1.90;;
5869;SDS011;2961;47.702;9.410;2022-07-03T06:39:22;2.33;;;2.13;;
5869;SDS011;2961;47.702;9.410;2022-07-03T06:41:49;1.73;;;1.63;;
5869;SDS011;2961;47.702;9.410;2022-07-03T06:44:15;2.07;;;1.97;;
5869;SDS011;2961;47.702;9.410;2022-07-03T06:46:42;2.23;;;2.03;;
5869;SDS011;2961;47.702;9.410;2022-07-03T06:49:09;2.20;;;2.10;;
5869;SDS011;2961;47.702;9.410;2022-07-03T06:51:36;1.90;;;1.80;;
5869;SDS011;2961;47.702;9.410;2022-07-03T06:54:03;1.90;;;1.80;;
5869;SDS011;2961;47.702;9.410;2022-07-03T06:56:31;2.00;;;1.90;;
5869;SDS011;2961;47.702;9.410;2022-07-03T06:58:58;2.20;;;2.00;;
5869;SDS011;2961;47.702;9.410;2022-07-03T07:01:25;1.58;;;1.52;;
5869;SDS011;2961;47.702;9.410;2022-07-03T07:03:52;3.50;;;2.10;;
5869;SDS011;2961;47.702;9.410;2022-07-03T07:06:19;1.70;;;1.60;;
5869;SDS011;2961;47.702;9.410;2022-07-03T07:08:46;2.28;;;1.65;;
5869;SDS011;2961;47.702;9.410;2022-07-03T07:11:13;1.70;;;1.60;;
5869;SDS011;2961;47.702;9.410;2022-07-03T07:13:41;1.50;;;1.50;;
5869;SDS011;2961;47.702;9.410;2022-07-03T07:16:08;1.95;;;1.73;;
5869;SDS011;2961;47.702;9.410;2022-07-03T07:18:35;1.50;;;1.40;;
5869;SDS011;2961;47.702;9.410;2022-07-03T07:21:02;1.67;;;1.60;;
5869;SDS011;2961;47.702;9.410;2022-07-03T07:23:29;1.60;;;1.50;;
5869;SDS011;2961;47.702;9.410;2022-07-03T07:25:55;3.80;;;1.67;;
5869;SDS011;2961;47.702;9.410;2022-07-03T07:28:23;3.25;;;1.80;;
5869;SDS011;2961;47.702;9.410;2022-07-03T07:30:51;2.20;;;1.55;;
5869;SDS011;2961;47.702;9.410;2022-07-03T07:33:20;3.13;;;1.88;;
5869;SDS011;2961;47.702;9.410;2022-07-03T07:35:47;1.40;;;1.20;;
5869;SDS011;2961;47.702;9.410;2022-07-03T07:38:13;1.80;;;1.70;;
5869;SDS011;2961;47.702;9.410;2022-07-03T07:40:40;1.80;;;1.65;;
5869;SDS011;2961;47.702;9.410;2022-07-03T07:43:07;2.80;;;1.48;;
5869;SDS011;2961;47.702;9.410;2022-07-03T07:45:34;1.50;;;1.50;;
5869;SDS011;2961;47.702;9.410;2022-07-03T07:48:02;1.48;;;1.40;;
5869;SDS011;2961;47.702;9.410;2022-07-03T07:50:29;2.55;;;1.50;;
5869;SDS011;2961;47.702;9.410;2022-07-03T07:52:56;5.20;;;1.70;;
5869;SDS011;2961;47.702;9.410;2022-07-03T07:55:23;1.80;;;1.70;;
5869;SDS011;2961;47.702;9.410;2022-07-03T07:57:50;2.67;;;1.65;;
5869;SDS011;2961;47.702;9.410;2022-07-03T08:00:18;1.42;;;1.42;;
5869;SDS011;2961;47.702;9.410;2022-07-03T08:02:46;1.58;;;1.55;;
5869;SDS011;2961;47.702;9.410;2022-07-03T08:05:32;3.00;;;1.90;;
5869;SDS011;2961;47.702;9.410;2022-07-03T08:08:06;2.08;;;1.98;;
5869;SDS011;2961;47.702;9.410;2022-07-03T08:10:35;1.67;;;1.60;;
5869;SDS011;2961;47.702;9.410;2022-07-03T08:13:03;1.38;;;1.38;;
5869;SDS011;2961;47.702;9.410;2022-07-03T08:15:31;4.93;;;1.13;;
5869;SDS011;2961;47.702;9.410;2022-07-03T08:17:58;1.30;;;1.30;;
5869;SDS011;2961;47.702;9.410;2022-07-03T08:20:24;1.40;;;1.30;;
5869;SDS011;2961;47.702;9.410;2022-07-03T08:22:53;1.65;;;1.42;;
5869;SDS011;2961;47.702;9.410;2022-07-03T08:25:20;6.00;;;1.20;;
5869;SDS011;2961;47.702;9.410;2022-07-03T08:27:46;4.57;;;1.60;;
5869;SDS011;2961;47.702;9.410;2022-07-03T08:30:14;4.00;;;1.50;;
5869;SDS011;2961;47.702;9.410;2022-07-03T08:32:42;4.45;;;1.58;;
5869;SDS011;2961;47.702;9.410;2022-07-03T08:35:10;2.47;;;1.52;;
5869;SDS011;2961;47.702;9.410;2022-07-03T08:37:37;5.45;;;1.40;;
5869;SDS011;2961;47.702;9.410;2022-07-03T08:40:07;10.18;;;1.67;;
5869;SDS011;2961;47.702;9.410;2022-07-03T08:42:35;2.47;;;1.42;;
5869;SDS011;2961;47.702;9.410;2022-07-03T08:45:04;1.40;;;1.38;;
5869;SDS011;2961;47.702;9.410;2022-07-03T08:47:34;1.67;;;1.50;;
5869;SDS011;2961;47.702;9.410;2022-07-03T08:50:04;1.35;;;1.25;;
5869;SDS011;2961;47.702;9.410;2022-07-03T08:52:31;1.15;;;1.15;;
5869;SDS011;2961;47.702;9.410;2022-07-03T08:55:01;3.03;;;1.42;;
5869;SDS011;2961;47.702;9.410;2022-07-03T08:57:29;1.48;;;1.35;;
5869;SDS011;2961;47.702;9.410;2022-07-03T08:59:57;1.00;;;1.00;;
5869;SDS011;2961;47.702;9.410;2022-07-03T09:02:29;1.60;;;1.50;;
5869;SDS011;2961;47.702;9.410;2022-07-03T09:04:57;2.42;;;1.58;;
5869;SDS011;2961;47.702;9.410;2022-07-03T09:07:25;1.67;;;1.58;;
5869;SDS011;2961;47.702;9.410;2022-07-03T09:09:53;1.83;;;1.45;;
5869;SDS011;2961;47.702;9.410;2022-07-03T09:12:20;1.10;;;1.10;;
5869;SDS011;2961;47.702;9.410;2022-07-03T09:14:49;1.30;;;1.15;;
5869;SDS011;2961;47.702;9.410;2022-07-03T09:17:16;1.58;;;1.10;;
5869;SDS011;2961;47.702;9.410;2022-07-03T09:19:43;1.45;;;1.10;;
5869;SDS011;2961;47.702;9.410;2022-07-03T09:22:22;1.85;;;1.33;;
5869;SDS011;2961;47.702;9.410;2022-07-03T09:24:50;1.38;;;1.33;;
5869;SDS011;2961;47.702;9.410;2022-07-03T09:27:19;2.80;;;1.58;;
5869;SDS011;2961;47.702;9.410;2022-07-03T09:29:51;1.30;;;1.30;;
5869;SDS011;2961;47.702;9.410;2022-07-03T09:32:24;1.40;;;1.40;;
5869;SDS011;2961;47.702;9.410;2022-07-03T09:37:40;5.78;;;1.20;;
5869;SDS011;2961;47.702;9.410;2022-07-03T09:40:07;1.02;;;1.02;;
5869;SDS011;2961;47.702;9.410;2022-07-03T09:42:34;1.13;;;1.13;;
5869;SDS011;2961;47.702;9.410;2022-07-03T09:45:03;1.13;;;1.13;;
5869;SDS011;2961;47.702;9.410;2022-07-03T09:47:30;0.93;;;0.93;;
5869;SDS011;2961;47.702;9.410;2022-07-03T09:49:59;0.82;;;0.82;;
5869;SDS011;2961;47.702;9.410;2022-07-03T09:52:28;0.80;;;0.80;;
5869;SDS011;2961;47.702;9.410;2022-07-03T09:54:58;1.30;;;1.20;;
5869;SDS011;2961;47.702;9.410;2022-07-03T09:57:26;1.33;;;1.23;;
5869;SDS011;2961;47.702;9.410;2022-07-03T10:00:09;1.70;;;1.20;;
5869;SDS011;2961;47.702;9.410;2022-07-03T10:02:50;2.08;;;1.15;;
5869;SDS011;2961;47.702;9.410;2022-07-03T10:05:18;1.75;;;1.20;;
5869;SDS011;2961;47.702;9.410;2022-07-03T10:07:49;0.80;;;0.80;;
5869;SDS011;2961;47.702;9.410;2022-07-03T10:10:18;1.10;;;0.90;;
5869;SDS011;2961;47.702;9.410;2022-07-03T10:12:46;1.60;;;1.40;;
5869;SDS011;2961;47.702;9.410;2022-07-03T10:15:16;1.10;;;1.00;;
5869;SDS011;2961;47.702;9.410;2022-07-03T10:17:45;1.40;;;1.30;;
5869;SDS011;2961;47.702;9.410;2022-07-03T10:20:14;1.20;;;1.10;;
5869;SDS011;2961;47.702;9.410;2022-07-03T10:22:45;1.52;;;1.13;;
5869;SDS011;2961;47.702;9.410;2022-07-03T10:25:13;2.72;;;0.90;;
5869;SDS011;2961;47.702;9.410;2022-07-03T10:27:42;2.13;;;0.90;;
5869;SDS011;2961;47.702;9.410;2022-07-03T10:30:10;1.30;;;1.20;;
5869;SDS011;2961;47.702;9.410;2022-07-03T10:32:39;1.27;;;1.17;;
5869;SDS011;2961;47.702;9.410;2022-07-03T10:35:10;1.57;;;0.80;;
5869;SDS011;2961;47.702;9.410;2022-07-03T10:37:41;1.37;;;1.37;;
5869;SDS011;2961;47.702;9.410;2022-07-03T10:40:26;1.40;;;1.30;;
5869;SDS011;2961;47.702;9.410;2022-07-03T10:43:20;1.00;;;1.00;;
5869;SDS011;2961;47.702;9.410;2022-07-03T10:46:09;1.30;;;1.20;;
5869;SDS011;2961;47.702;9.410;2022-07-03T10:48:57;1.70;;;1.60;;
5869;SDS011;2961;47.702;9.410;2022-07-03T10:51:26;1.60;;;1.50;;
5869;SDS011;2961;47.702;9.410;2022-07-03T10:54:11;2.20;;;1.63;;
5869;SDS011;2961;47.702;9.410;2022-07-03T10:59:59;2.00;;;1.10;;
5869;SDS011;2961;47.702;9.410;2022-07-03T11:02:48;2.03;;;1.07;;
5869;SDS011;2961;47.702;9.410;2022-07-03T11:05:25;1.00;;;1.00;;
5869;SDS011;2961;47.702;9.410;2022-07-03T11:08:07;5.30;;;0.97;;
5869;SDS011;2961;47.702;9.410;2022-07-03T11:10:36;0.50;;;0.50;;
5869;SDS011;2961;47.702;9.410;2022-07-03T11:13:17;0.70;;;0.70;;
5869;SDS011;2961;47.702;9.410;2022-07-03T11:15:51;1.10;;;0.90;;
5869;SDS011;2961;47.702;9.410;2022-07-03T11:18:20;1.73;;;0.93;;
5869;SDS011;2961;47.702;9.410;2022-07-03T11:30:00;1.20;;;1.10;;
5869;SDS011;2961;47.702;9.410;2022-07-03T11:32:43;1.43;;;1.37;;
5869;SDS011;2961;47.702;9.410;2022-07-03T11:38:18;3.17;;;0.90;;
5869;SDS011;2961;47.702;9.410;2022-07-03T11:40:47;1.53;;;1.13;;
5869;SDS011;2961;47.702;9.410;2022-07-03T11:43:16;0.93;;;0.87;;
5869;SDS011;2961;47.702;9.410;2022-07-03T11:45:43;2.00;;;0.80;;
5869;SDS011;2961;47.702;9.410;2022-07-03T11:48:12;1.13;;;0.67;;
5869;SDS011;2961;47.702;9.410;2022-07-03T11:50:40;1.60;;;1.00;;
5869;SDS011;2961;47.702;9.410;2022-07-03T11:55:53;1.03;;;1.03;;
5869;SDS011;2961;47.702;9.410;2022-07-03T11:58:22;0.80;;;0.80;;
5869;SDS011;2961;47.702;9.410;2022-07-03T12:00:50;3.30;;;0.70;;
5869;SDS011;2961;47.702;9.410;2022-07-03T12:03:22;1.23;;;0.63;;
5869;SDS011;2961;47.702;9.410;2022-07-03T12:05:54;0.97;;;0.60;;
5869;SDS011;2961;47.702;9.410;2022-07-03T12:08:24;2.53;;;0.80;;
5869;SDS011;2961;47.702;9.410;2022-07-03T12:10:56;3.53;;;0.70;;
5869;SDS011;2961;47.702;9.410;2022-07-03T12:13:24;1.23;;;0.60;;
5869;SDS011;2961;47.702;9.410;2022-07-03T12:15:52;0.77;;;0.77;;
5869;SDS011;2961;47.702;9.410;2022-07-03T12:18:20;0.70;;;0.70;;
5869;SDS011;2961;47.702;9.410;2022-07-03T12:20:47;0.83;;;0.83;;
5869;SDS011;2961;47.702;9.410;2022-07-03T12:23:14;1.50;;;0.90;;
5869;SDS011;2961;47.702;9.410;2022-07-03T12:25:42;0.77;;;0.77;;
5869;SDS011;2961;47.702;9.410;2022-07-03T12:28:09;0.83;;;0.70;;
5869;SDS011;2961;47.702;9.410;2022-07-03T12:30:37;1.90;;;1.80;;
5869;SDS011;2961;47.702;9.410;2022-07-03T12:33:04;3.70;;;0.90;;
5869;SDS011;2961;47.702;9.410;2022-07-03T12:35:33;0.77;;;0.77;;
5869;SDS011;2961;47.702;9.410;2022-07-03T12:37:59;4.93;;;0.90;;
5869;SDS011;2961;47.702;9.410;2022-07-03T12:40:26;2.20;;;1.57;;
5869;SDS011;2961;47.702;9.410;2022-07-03T12:42:55;2.37;;;1.17;;
5869;SDS011;2961;47.702;9.410;2022-07-03T12:45:24;1.00;;;0.90;;
5869;SDS011;2961;47.702;9.410;2022-07-03T12:47:57;2.30;;;1.23;;
5869;SDS011;2961;47.702;9.410;2022-07-03T12:50:26;1.03;;;0.93;;
5869;SDS011;2961;47.702;9.410;2022-07-03T12:53:09;1.90;;;1.40;;
5869;SDS011;2961;47.702;9.410;2022-07-03T12:55:35;6.57;;;5.93;;
5869;SDS011;2961;47.702;9.410;2022-07-03T12:58:14;3.40;;;3.20;;
5869;SDS011;2961;47.702;9.410;2022-07-03T13:01:00;1.27;;;1.00;;
5869;SDS011;2961;47.702;9.410;2022-07-03T13:03:28;1.33;;;0.93;;
5869;SDS011;2961;47.702;9.410;2022-07-03T13:05:55;0.70;;;0.70;;
5869;SDS011;2961;47.702;9.410;2022-07-03T13:08:22;1.17;;;1.17;;
5869;SDS011;2961;47.702;9.410;2022-07-03T13:10:56;1.67;;;0.90;;
5869;SDS011;2961;47.702;9.410;2022-07-03T13:13:25;1.53;;;1.23;;
5869;SDS011;2961;47.702;9.410;2022-07-03T13:15:52;1.10;;;1.00;;
5869;SDS011;2961;47.702;9.410;2022-07-03T13:18:19;1.00;;;1.00;;
5869;SDS011;2961;47.702;9.410;2022-07-03T13:20:46;1.50;;;1.00;;
5869;SDS011;2961;47.702;9.410;2022-07-03T13:23:13;1.33;;;1.00;;
5869;SDS011;2961;47.702;9.410;2022-07-03T13:25:39;0.90;;;0.90;;
5869;SDS011;2961;47.702;9.410;2022-07-03T13:28:08;2.13;;;1.00;;
5869;SDS011;2961;47.702;9.410;2022-07-03T13:30:37;3.70;;;1.10;;
5869;SDS011;2961;47.702;9.410;2022-07-03T13:33:05;2.20;;;1.20;;
5869;SDS011;2961;47.702;9.410;2022-07-03T13:35:32;1.10;;;1.10;;
5869;SDS011;2961;47.702;9.410;2022-07-03T13:38:00;1.13;;;1.00;;
5869;SDS011;2961;47.702;9.410;2022-07-03T13:40:27;4.33;;;1.10;;
5869;SDS011;2961;47.702;9.410;2022-07-03T13:42:54;1.90;;;1.10;;
5869;SDS011;2961;47.702;9.410;2022-07-03T13:45:20;2.43;;;1.03;;
5869;SDS011;2961;47.702;9.410;2022-07-03T13:47:49;1.07;;;1.00;;
5869;SDS011;2961;47.702;9.410;2022-07-03T13:50:16;0.90;;;0.90;;
5869;SDS011;2961;47.702;9.410;2022-07-03T13:52:43;0.93;;;0.83;;
5869;SDS011;2961;47.702;9.410;2022-07-03T13:55:10;1.10;;;1.10;;
5869;SDS011;2961;47.702;9.410;2022-07-03T13:57:37;1.50;;;1.10;;
5869;SDS011;2961;47.702;9.410;2022-07-03T14:00:05;1.00;;;1.00;;
5869;SDS011;2961;47.702;9.410;2022-07-03T14:02:33;1.20;;;1.20;;
5869;SDS011;2961;47.702;9.410;2022-07-03T14:05:01;1.77;;;1.10;;
5869;SDS011;2961;47.702;9.410;2022-07-03T14:07:28;1.93;;;1.00;;
5869;SDS011;2961;47.702;9.410;2022-07-03T14:09:54;5.77;;;1.43;;
5869;SDS011;2961;47.702;9.410;2022-07-03T14:12:21;1.20;;;1.20;;
5869;SDS011;2961;47.702;9.410;2022-07-03T14:14:48;1.33;;;1.23;;
5869;SDS011;2961;47.702;9.410;2022-07-03T14:17:15;1.97;;;1.20;;
5869;SDS011;2961;47.702;9.410;2022-07-03T14:19:42;1.10;;;1.10;;
5869;SDS011;2961;47.702;9.410;2022-07-03T14:22:10;3.23;;;1.20;;
5869;SDS011;2961;47.702;9.410;2022-07-03T14:24:37;0.90;;;0.90;;
5869;SDS011;2961;47.702;9.410;2022-07-03T14:27:04;2.90;;;1.30;;
5869;SDS011;2961;47.702;9.410;2022-07-03T14:29:48;2.10;;;1.43;;
5869;SDS011;2961;47.702;9.410;2022-07-03T14:32:33;3.07;;;1.20;;
5869;SDS011;2961;47.702;9.410;2022-07-03T14:35:01;2.40;;;1.03;;
5869;SDS011;2961;47.702;9.410;2022-07-03T14:37:30;1.53;;;1.43;;
5869;SDS011;2961;47.702;9.410;2022-07-03T14:39:57;1.77;;;0.97;;
5869;SDS011;2961;47.702;9.410;2022-07-03T14:42:24;2.20;;;1.30;;
5869;SDS011;2961;47.702;9.410;2022-07-03T14:44:51;3.07;;;1.53;;
5869;SDS011;2961;47.702;9.410;2022-07-03T14:47:18;1.20;;;1.20;;
5869;SDS011;2961;47.702;9.410;2022-07-03T14:49:46;1.37;;;1.37;;
5869;SDS011;2961;47.702;9.410;2022-07-03T14:52:12;1.80;;;1.17;;
5869;SDS011;2961;47.702;9.410;2022-07-03T14:54:41;1.73;;;0.87;;
5869;SDS011;2961;47.702;9.410;2022-07-03T14:57:12;1.40;;;1.30;;
5869;SDS011;2961;47.702;9.410;2022-07-03T14:59:50;1.50;;;1.37;;
5869;SDS011;2961;47.702;9.410;2022-07-03T15:02:30;1.63;;;1.40;;
5869;SDS011;2961;47.702;9.410;2022-07-03T15:05:02;1.53;;;1.43;;
5869;SDS011;2961;47.702;9.410;2022-07-03T15:07:40;1.20;;;1.00;;
5869;SDS011;2961;47.702;9.410;2022-07-03T15:10:10;1.10;;;1.10;;
5869;SDS011;2961;47.702;9.410;2022-07-03T15:12:40;1.90;;;1.10;;
5869;SDS011;2961;47.702;9.410;2022-07-03T15:15:09;1.43;;;1.33;;
5869;SDS011;2961;47.702;9.410;2022-07-03T15:17:37;1.67;;;1.57;;
5869;SDS011;2961;47.702;9.410;2022-07-03T15:20:06;2.70;;;1.47;;
5869;SDS011;2961;47.702;9.410;2022-07-03T15:22:38;3.70;;;1.37;;
5869;SDS011;2961;47.702;9.410;2022-07-03T15:25:07;1.30;;;1.20;;
5869;SDS011;2961;47.702;9.410;2022-07-03T15:27:37;1.53;;;1.50;;
5869;SDS011;2961;47.702;9.410;2022-07-03T15:30:04;1.40;;;1.33;;
5869;SDS011;2961;47.702;9.410;2022-07-03T15:32:33;2.80;;;1.50;;
5869;SDS011;2961;47.702;9.410;2022-07-03T15:35:00;1.80;;;1.53;;
5869;SDS011;2961;47.702;9.410;2022-07-03T15:37:35;3.70;;;1.40;;
5869;SDS011;2961;47.702;9.410;2022-07-03T15:40:14;1.70;;;1.60;;
5869;SDS011;2961;47.702;9.410;2022-07-03T15:43:03;2.10;;;1.40;;
5869;SDS011;2961;47.702;9.410;2022-07-03T15:45:47;7.40;;;1.60;;
5869;SDS011;2961;47.702;9.410;2022-07-03T15:48:23;1.43;;;1.33;;
5869;SDS011;2961;47.702;9.410;2022-07-03T15:50:59;2.28;;;1.20;;
5869;SDS011;2961;47.702;9.410;2022-07-03T15:53:38;2.43;;;1.23;;